Terminal Aerodrome Forecast
Issued by NWS Upton, NY

Home | Current Version | Previous Version | Text Only | Print | Product List | Glossary On
Versions: 1 2 3 4 5 6 7 8 9 10 11 12 13 14 15 16 17 18 19 20 21 22 23 24 25 26
206
FTUS41 KOKX 242342
TAFEWR
TAF
KEWR 242342Z 2500/2606 13005KT P6SM -RA SCT030 BKN060
     FM250200 07008KT 6SM -RA BR SCT015 OVC060
     FM250600 05011KT 5SM -RA BR SCT007 BKN015
     FM250900 05013G19KT 3SM -RA BR BKN007 OVC010
     FM251400 05015G21KT 1SM -RA BR OVC006
     FM260000 05012KT 1SM -RA OVC004=

USA.gov is the U.S. government's official web portal to all federal, state and local government web resources and services.